This is the latest recevied weather packets stored in our database for station/object VE9LJW. If no packets are shown the sender has not sent any weather packets the latest 10 day(s).
| Time | Temp. | Humidity | Pressure | Rain* | Wind** | Luminosity | Snow |
|---|---|---|---|---|---|---|---|
| 1777659948 | 15° C | 98% | 1001.7 hPa | 0 mm | - | 243 W/m² | - |
| 1777659645 | 15° C | 98% | 1001.3 hPa | 0 mm | - | 281 W/m² | - |
| 1777659343 | 15° C | 98% | 1001.4 hPa | 0 mm | - | 229 W/m² | - |
| 1777659039 | 14.44° C | 99% | 1001.3 hPa | 0.51 mm | - | 254 W/m² | - |
| 1777658737 | 15° C | 99% | 1001.5 hPa | 1.78 mm | - | 196 W/m² | - |
| 1777658433 | 14.44° C | 99% | 1001.4 hPa | 2.29 mm | - | 341 W/m² | - |
| 1777658130 | 15° C | 98% | 1001.2 hPa | 1.27 mm | - | 261 W/m² | - |
| 1777657826 | 16.11° C | 94% | 1001.4 hPa | 0 mm | - | 171 W/m² | - |
| 1777657524 | 15° C | 94% | 1001.5 hPa | 0 mm | - | 242 W/m² | - |
| 1777657221 | 16.11° C | 94% | 1001.4 hPa | 0 mm | - | 177 W/m² | - |
| 1777656918 | 16.11° C | 90% | 1001.2 hPa | 0 mm | - | 166 W/m² | - |
| 1777656615 | 15° C | 90% | 1001.3 hPa | 0 mm | - | 362 W/m² | - |
| 1777656310 | 16.11° C | 91% | 1001.2 hPa | 0 mm | - | 202 W/m² | - |
| 1777656006 | 16.11° C | 92% | 1001.1 hPa | 0 mm | - | 232 W/m² | - |
| 1777655703 | 15.56° C | 93% | 1001.3 hPa | 0 mm | - | 335 W/m² | - |
| 1777655399 | 15° C | 96% | 1001.1 hPa | 0 mm | - | 267 W/m² | - |
| 1777655096 | 15° C | 97% | 1001.2 hPa | 0 mm | - | 228 W/m² | - |
| 1777654793 | 15.56° C | 96% | 1001.2 hPa | 0 mm | - | 225 W/m² | - |
| 1777654491 | 15.56° C | 95% | 1001.1 hPa | 0 mm | - | 198 W/m² | - |
| 1777654188 | 15° C | 98% | 1001.1 hPa | 0 mm | - | 279 W/m² | - |
| 1777653886 | 14.44° C | 99% | 1001.2 hPa | 0 mm | - | 267 W/m² | - |
| 1777653583 | 14.44° C | 99% | 1001.1 hPa | 0 mm | - | 267 W/m² | - |
| 1777653279 | 15° C | 99% | 1001.1 hPa | 0 mm | - | 170 W/m² | - |
| 1777652976 | 15° C | 99% | 1001.4 hPa | 0 mm | - | 208 W/m² | - |
| 1777652672 | 13.89° C | 99% | 1001.4 hPa | 0 mm | - | 263 W/m² | - |
* Rain latest hour (hover to see other rain measurements)
** Current wind speed in m/s (hover to see current wind gust speed)